Time;durP1;ratioP1;P1;durP2;ratioP2;P2;SDS_P1;SDS_P2;PMS_P1;PMS_P2;Temp;Humidity;BMP_temperature;BMP_pressure;BME280_temperature;BME280_humidity;BME280_pressure;Samples;Min_cycle;Max_cycle;Signal;HPM_P1;HPM_P2
2022/05/01 00:00:20;;;;;;;62.40;40.70;;;;;;;7.86;44.99;99437.16;105679;1282;111765;-70
2022/05/01 00:03:06;;;;;;;59.60;41.80;;;;;;;7.81;44.77;99435.70;105574;1282;95321;-69
2022/05/01 00:05:38;;;;;;;63.60;41.70;;;;;;;7.77;45.06;99432.73;105663;1281;107395;-69
2022/05/01 00:08:09;;;;;;;68.60;43.30;;;;;;;7.73;45.05;99432.23;105652;1283;97998;-70
2022/05/01 00:10:38;;;;;;;65.00;43.50;;;;;;;7.69;44.88;99430.69;105705;1283;97848;-70
2022/05/01 00:13:32;;;;;;;58.00;40.00;;;;;;;7.66;45.46;99428.60;105445;1282;112316;-69
2022/05/01 00:15:59;;;;;;;58.60;40.90;;;;;;;7.61;45.39;99428.48;105677;1282;97909;-69
2022/05/01 00:18:28;;;;;;;60.50;40.00;;;;;;;7.54;45.43;99427.61;105675;1283;107479;-69
2022/05/01 00:20:56;;;;;;;64.00;40.00;;;;;;;7.49;45.44;99423.67;105697;1283;96432;-69
2022/05/01 00:23:24;;;;;;;61.70;40.60;;;;;;;7.44;45.67;99426.91;105626;1283;96377;-66
2022/05/01 00:25:59;;;;;;;60.80;39.70;;;;;;;7.38;45.64;99423.02;105691;1282;112402;-69
2022/05/01 00:28:32;;;;;;;61.20;40.50;;;;;;;7.34;45.80;99421.10;105703;1283;98008;-69
2022/05/01 00:31:07;;;;;;;66.50;41.80;;;;;;;7.31;45.84;99419.15;105573;1282;107524;-70
2022/05/01 00:36:29;;;;;;;67.00;44.60;;;;;;;7.27;45.90;99417.95;105593;1281;97950;-69
2022/05/01 00:39:03;;;;;;;71.10;44.30;;;;;;;7.22;46.08;99415.90;105417;1283;111363;-69
2022/05/01 00:41:39;;;;;;;65.50;43.10;;;;;;;7.15;46.18;99415.60;105743;1283;97761;-70
2022/05/01 00:44:17;;;;;;;69.30;42.30;;;;;;;7.08;46.19;99415.77;105695;1283;107706;-69
2022/05/01 00:46:51;;;;;;;67.90;43.20;;;;;;;7.05;46.48;99414.35;105465;1282;98609;-67
2022/05/01 00:49:21;;;;;;;65.20;42.40;;;;;;;7.04;46.34;99414.60;105739;1282;98028;-68
2022/05/01 00:51:58;;;;;;;61.80;37.60;;;;;;;7.03;46.37;99417.13;105543;1282;112099;-69
2022/05/01 00:54:32;;;;;;;55.50;36.20;;;;;;;7.04;46.74;99414.77;105584;1282;97916;-66
2022/05/01 00:57:06;;;;;;;64.30;41.40;;;;;;;7.03;46.49;99414.98;105744;1283;107560;-71
2022/05/01 00:59:39;;;;;;;56.40;34.60;;;;;;;7.01;46.52;99419.30;105766;1283;97952;-67
2022/05/01 01:02:08;;;;;;;59.80;36.60;;;;;;;6.96;46.72;99415.88;105462;1282;97901;-67
2022/05/01 01:04:38;;;;;;;60.20;40.20;;;;;;;6.92;46.77;99417.99;105679;1282;111789;-69
2022/05/01 01:07:08;;;;;;;58.10;37.90;;;;;;;6.91;46.77;99424.08;105737;1282;97795;-70
2022/05/01 01:09:37;;;;;;;59.10;39.40;;;;;;;6.90;46.91;99421.64;105694;1283;108377;-67
2022/05/01 01:15:17;;;;;;;59.00;35.80;;;;;;;6.83;47.05;99424.30;105731;1283;95210;-69
2022/05/01 01:17:55;;;;;;;56.40;36.60;;;;;;;6.78;46.97;99423.48;105639;1282;110596;-69
2022/05/01 01:20:33;;;;;;;60.60;37.50;;;;;;;6.74;46.99;99419.30;105638;1282;95467;-68
2022/05/01 01:23:01;;;;;;;54.20;35.60;;;;;;;6.70;46.94;99419.66;105644;1282;107763;-69
2022/05/01 01:25:32;;;;;;;59.80;36.60;;;;;;;6.66;47.07;99420.20;105750;1283;98008;-69
2022/05/01 01:28:08;;;;;;;55.70;38.00;;;;;;;6.63;47.11;99417.36;105677;1282;97882;-69
2022/05/01 01:33:34;;;;;;;55.80;35.50;;;;;;;6.56;47.42;99417.55;105582;1282;95321;-69
2022/05/01 01:36:07;;;;;;;58.50;36.60;;;;;;;6.52;47.24;99412.80;105369;1284;108341;-67
2022/05/01 01:38:35;;;;;;;52.70;34.70;;;;;;;6.48;47.27;99411.27;105762;1282;96354;-68
2022/05/01 01:41:09;;;;;;;53.10;35.50;;;;;;;6.45;47.44;99418.30;105737;1283;98093;-68
2022/05/01 01:43:44;;;;;;;57.70;35.20;;;;;;;6.42;47.68;99415.09;105365;1284;112089;-66
2022/05/01 01:46:12;;;;;;;61.20;36.00;;;;;;;6.35;47.36;99418.76;105518;1282;98162;-68
2022/05/01 01:48:48;;;;;;;59.70;37.90;;;;;;;6.20;47.39;99420.89;105686;1282;109448;-68
2022/05/01 01:51:15;;;;;;;55.30;35.30;;;;;;;6.13;47.77;99418.77;105351;1282;97897;-68
2022/05/01 01:53:47;;;;;;;49.80;32.30;;;;;;;6.12;48.02;99416.36;105720;1283;97882;-69
2022/05/01 01:56:15;;;;;;;52.70;34.70;;;;;;;6.14;47.92;99421.05;105711;1281;112076;-68
2022/05/01 01:58:43;;;;;;;54.90;34.50;;;;;;;6.13;48.08;99417.52;105677;1283;96573;-69
2022/05/01 02:01:11;;;;;;;55.90;33.80;;;;;;;6.14;48.25;99420.16;105658;1283;108355;-69
2022/05/01 02:03:39;;;;;;;56.30;36.30;;;;;;;6.15;48.38;99420.10;105407;1282;98017;-70
2022/05/01 02:06:09;;;;;;;58.40;35.80;;;;;;;6.16;48.43;99420.55;105372;1282;95288;-69
2022/05/01 02:08:37;;;;;;;52.10;35.10;;;;;;;6.15;48.39;99419.71;105595;1283;111982;-69
2022/05/01 02:11:05;;;;;;;50.40;33.40;;;;;;;6.14;48.41;99414.51;105405;1283;98755;-68
2022/05/01 02:13:35;;;;;;;56.90;34.80;;;;;;;6.13;48.52;99411.73;105417;1282;108357;-70
2022/05/01 02:16:03;;;;;;;53.10;33.40;;;;;;;6.10;48.48;99411.55;105344;1282;97967;-68
2022/05/01 02:18:31;;;;;;;53.50;34.40;;;;;;;6.07;48.54;99411.34;105471;1282;98634;-69
2022/05/01 02:23:46;;;;;;;56.80;35.30;;;;;;;6.03;48.75;99410.11;105367;1282;97939;-68
2022/05/01 02:26:14;;;;;;;54.60;35.80;;;;;;;5.98;48.67;99404.69;105381;1282;108418;-68
2022/05/01 02:28:42;;;;;;;56.70;35.10;;;;;;;5.95;48.75;99403.73;105349;1282;96566;-69
2022/05/01 02:31:10;;;;;;;57.80;37.00;;;;;;;5.93;48.65;99402.41;105364;1282;98087;-68
2022/05/01 02:33:41;;;;;;;55.40;34.40;;;;;;;5.91;48.71;99398.85;105577;1283;112045;-69
2022/05/01 02:36:12;;;;;;;54.20;34.40;;;;;;;5.89;48.79;99398.41;105544;1282;97906;-70
2022/05/01 02:38:40;;;;;;;54.80;34.20;;;;;;;5.85;48.71;99396.50;105389;1283;107702;-68
2022/05/01 02:41:08;;;;;;;55.20;34.20;;;;;;;5.82;48.91;99395.42;105564;1281;95389;-70
2022/05/01 02:43:37;;;;;;;55.60;35.40;;;;;;;5.79;48.99;99393.95;105677;1281;96426;-67
2022/05/01 02:46:04;;;;;;;60.60;37.30;;;;;;;5.77;49.07;99391.75;105563;1281;111891;-69
2022/05/01 02:48:35;;;;;;;57.70;37.50;;;;;;;5.76;49.13;99394.95;105593;1281;97771;-71
2022/05/01 02:51:06;;;;;;;55.10;35.60;;;;;;;5.75;49.11;99396.27;105598;1281;107733;-69
2022/05/01 02:53:34;;;;;;;56.30;36.90;;;;;;;5.72;49.23;99393.95;105620;1281;97964;-69
2022/05/01 02:56:04;;;;;;;59.70;37.10;;;;;;;5.70;49.24;99392.98;105599;1281;97896;-69
2022/05/01 02:58:33;;;;;;;59.90;36.60;;;;;;;5.68;49.27;99393.60;105643;1281;111380;-68
2022/05/01 03:01:01;;;;;;;52.10;33.40;;;;;;;5.66;49.40;99397.71;105631;1281;98693;-69
2022/05/01 03:03:33;;;;;;;53.00;33.50;;;;;;;5.65;49.39;99399.02;105567;1282;108792;-69
2022/05/01 03:06:01;;;;;;;49.20;31.30;;;;;;;5.64;49.49;99396.22;105751;1281;97992;-68
2022/05/01 03:08:32;;;;;;;46.10;30.00;;;;;;;5.64;49.54;99398.84;105357;1282;98028;-69
2022/05/01 03:11:03;;;;;;;51.20;31.00;;;;;;;5.64;49.58;99404.33;105657;1281;112096;-69
2022/05/01 03:13:33;;;;;;;48.10;29.20;;;;;;;5.64;49.69;99400.83;105710;1281;97966;-69
2022/05/01 03:16:01;;;;;;;47.10;28.10;;;;;;;5.64;49.83;99407.67;105690;1281;107406;-68
2022/05/01 03:24:08;;;;;;;38.60;21.90;;;;;;;5.65;49.94;99408.34;105545;1281;111090;-68
2022/05/01 03:26:41;;;;;;;37.80;22.90;;;;;;;5.66;49.99;99410.21;105564;1281;96258;-69
2022/05/01 03:29:13;;;;;;;;;;;;;;;5.68;50.05;99410.33;105664;1281;107735;-68
2022/05/01 03:31:45;;;;;;;36.00;19.30;;;;;;;5.66;50.23;99416.39;105562;1281;97879;-68
2022/05/01 03:34:14;;;;;;;34.60;20.80;;;;;;;5.66;50.09;99414.44;105635;1281;96352;-68
2022/05/01 03:36:47;;;;;;;40.20;21.90;;;;;;;5.67;50.15;99416.33;105295;1284;114213;-67
2022/05/01 03:39:16;;;;;;;34.00;18.60;;;;;;;5.69;50.24;99417.69;105556;1283;97856;-69
2022/05/01 03:41:44;;;;;;;31.50;18.70;;;;;;;5.71;50.28;99418.65;105538;1283;108280;-68
2022/05/01 03:44:12;;;;;;;33.00;18.70;;;;;;;5.72;50.20;99416.79;103718;1282;2469006;-69
2022/05/01 03:46:42;;;;;;;30.10;16.30;;;;;;;5.73;50.20;99416.95;105614;1281;97976;-69
2022/05/01 03:49:13;;;;;;;33.20;18.60;;;;;;;5.67;49.78;99417.95;105632;1283;111555;-68
2022/05/01 03:51:42;;;;;;;34.00;18.20;;;;;;;5.59;50.24;99417.92;105460;1282;98535;-67
2022/05/01 03:54:12;;;;;;;31.90;16.90;;;;;;;5.57;50.21;99415.39;105460;1282;108487;-70
2022/05/01 03:56:43;;;;;;;33.50;17.80;;;;;;;5.52;50.17;99415.08;105682;1283;97928;-68
2022/05/01 03:59:13;;;;;;;34.50;19.30;;;;;;;5.51;50.45;99417.63;105387;1284;98677;-68
2022/05/01 04:01:42;;;;;;;32.80;17.90;;;;;;;5.51;50.25;99420.42;105527;1282;111703;-68
2022/05/01 04:04:12;;;;;;;34.60;19.20;;;;;;;5.45;50.25;99420.32;105601;1283;97986;-66
2022/05/01 04:06:44;;;;;;;33.90;19.10;;;;;;;5.35;50.13;99423.63;105511;1283;108250;-68
2022/05/01 04:09:14;;;;;;;35.00;19.20;;;;;;;5.22;50.10;99424.55;105619;1283;97852;-67
2022/05/01 04:11:42;;;;;;;35.50;19.20;;;;;;;5.13;50.24;99425.65;105687;1283;96461;-69
2022/05/01 04:14:13;;;;;;;36.70;20.30;;;;;;;5.04;50.38;99426.90;105561;1283;112016;-69
2022/05/01 04:16:40;;;;;;;36.90;21.00;;;;;;;4.97;50.41;99427.38;105582;1283;97919;-69
2022/05/01 04:19:12;;;;;;;35.90;20.80;;;;;;;4.94;50.81;99430.86;105539;1282;108380;-68
2022/05/01 04:21:42;;;;;;;33.40;20.20;;;;;;;4.94;50.83;99433.48;105481;1283;99420;-67
2022/05/01 04:24:11;;;;;;;35.10;20.60;;;;;;;4.97;50.89;99436.02;105590;1283;97955;-65
2022/05/01 04:26:39;;;;;;;34.90;20.20;;;;;;;4.98;50.91;99434.38;105493;1283;112535;-67
2022/05/01 04:31:53;;;;;;;36.80;21.10;;;;;;;5.06;51.52;99437.22;105485;1283;109372;-70
2022/05/01 04:34:22;;;;;;;34.10;20.30;;;;;;;5.12;51.38;99436.06;105385;1284;97878;-70
2022/05/01 04:36:50;;;;;;;33.80;19.50;;;;;;;5.16;51.41;99434.98;105496;1283;97991;-69
2022/05/01 04:39:18;;;;;;;33.60;20.70;;;;;;;5.20;51.36;99436.39;105365;1283;112002;-68
2022/05/01 04:41:46;;;;;;;36.20;20.40;;;;;;;5.24;51.27;99436.75;105522;1282;97895;-68
2022/05/01 04:44:14;;;;;;;33.10;20.80;;;;;;;5.26;51.47;99436.34;105554;1283;108235;-68
2022/05/01 04:46:43;;;;;;;32.80;18.70;;;;;;;5.26;51.87;99431.42;105547;1283;96417;-69
2022/05/01 04:49:18;;;;;;;34.50;19.80;;;;;;;5.30;51.81;99430.66;105569;1282;97820;-67
2022/05/01 04:51:47;;;;;;;36.20;20.70;;;;;;;5.36;51.97;99434.27;105518;1283;112147;-68
2022/05/01 04:54:16;;;;;;;35.50;20.60;;;;;;;5.42;52.02;99430.37;105114;1283;97909;-69
2022/05/01 04:59:30;;;;;;;39.50;22.50;;;;;;;5.54;52.30;99427.83;105536;1283;95366;-70
2022/05/01 05:01:58;;;;;;;38.60;22.50;;;;;;;5.61;52.40;99426.32;105618;1284;97885;-71
2022/05/01 05:04:32;;;;;;;35.00;21.00;;;;;;;5.69;52.57;99429.27;105521;1284;111376;-69
2022/05/01 05:07:00;;;;;;;39.40;22.70;;;;;;;5.77;52.62;99429.23;105533;1283;97955;-69
2022/05/01 05:12:24;;;;;;;40.00;23.60;;;;;;;5.99;52.99;99425.95;105633;1283;98607;-69
2022/05/01 05:14:59;;;;;;;39.10;23.40;;;;;;;6.09;52.94;99423.55;105604;1284;98332;-69
2022/05/01 05:17:31;;;;;;;40.90;22.60;;;;;;;6.20;53.09;99422.49;105605;1284;112148;-69
2022/05/01 05:20:03;;;;;;;41.10;24.20;;;;;;;6.32;53.35;99426.83;105530;1282;97830;-68
2022/05/01 05:22:31;;;;;;;36.70;22.70;;;;;;;6.44;53.26;99428.52;105471;1284;108493;-69
2022/05/01 05:25:08;;;;;;;40.30;23.20;;;;;;;6.57;53.31;99429.65;105457;1283;97894;-69
2022/05/01 05:27:36;;;;;;;39.10;23.50;;;;;;;6.69;53.54;99426.41;105510;1284;97930;-69
2022/05/01 05:30:08;;;;;;;44.20;21.10;;;;;;;6.79;53.53;99429.22;105520;1284;112067;-69
2022/05/01 05:32:36;;;;;;;37.20;20.90;;;;;;;6.92;53.69;99434.77;105516;1283;97985;-67
2022/05/01 05:35:08;;;;;;;32.20;18.70;;;;;;;7.05;53.55;99435.85;105504;1284;108350;-69
2022/05/01 05:37:36;;;;;;;36.70;18.80;;;;;;;7.20;53.81;99437.75;105543;1284;97969;-66
2022/05/01 05:40:07;;;;;;;41.80;20.40;;;;;;;7.33;53.71;99437.76;105492;1284;95249;-68
2022/05/01 05:42:35;;;;;;;36.30;18.60;;;;;;;7.47;53.70;99440.02;105413;1284;111377;-68
2022/05/01 05:45:05;;;;;;;31.70;17.90;;;;;;;7.57;53.70;99439.27;106657;1282;97892;-69
2022/05/01 05:47:33;;;;;;;32.70;18.70;;;;;;;7.68;53.80;99438.33;105922;1284;107325;-68
2022/05/01 05:50:02;;;;;;;36.80;21.00;;;;;;;7.78;54.02;99437.95;105450;1283;96425;-68
2022/05/01 05:52:33;;;;;;;33.20;18.40;;;;;;;7.90;53.88;99434.86;105309;1284;97979;-66
2022/05/01 05:55:03;;;;;;;30.70;17.20;;;;;;;8.01;53.85;99433.67;105460;1283;112107;-68
2022/05/01 05:57:31;;;;;;;33.40;17.50;;;;;;;8.13;54.07;99430.40;105511;1284;98540;-67
2022/05/01 05:59:59;;;;;;;31.20;17.00;;;;;;;8.26;53.99;99430.20;105523;1284;108390;-70
2022/05/01 06:02:26;;;;;;;31.00;17.40;;;;;;;8.38;54.03;99429.32;105417;1284;97880;-67
2022/05/01 06:04:55;;;;;;;29.90;16.10;;;;;;;8.50;54.01;99432.21;105427;1284;98985;-67
2022/05/01 06:07:23;;;;;;;30.40;17.60;;;;;;;8.64;53.91;99429.64;105408;1284;112059;-69
2022/05/01 06:09:51;;;;;;;29.40;17.00;;;;;;;8.78;54.04;99432.30;105432;1283;97887;-69
2022/05/01 06:12:19;;;;;;;29.80;15.80;;;;;;;8.91;53.91;99436.36;105418;1284;108344;-69
2022/05/01 06:14:47;;;;;;;31.30;17.50;;;;;;;9.04;54.02;99436.08;105426;1284;97098;-70
2022/05/01 06:17:14;;;;;;;27.80;16.10;;;;;;;9.20;54.21;99437.59;105517;1284;97892;-68
2022/05/01 06:19:42;;;;;;;30.40;16.80;;;;;;;9.34;54.08;99439.58;105474;1283;112141;-64
2022/05/01 06:22:13;;;;;;;28.70;15.00;;;;;;;9.46;54.29;99434.45;105449;1282;96466;-71
2022/05/01 06:24:43;;;;;;;29.70;15.70;;;;;;;9.56;54.26;99433.80;105463;1284;107908;-71
2022/05/01 06:27:11;;;;;;;27.60;15.40;;;;;;;9.67;54.24;99430.33;105486;1283;97874;-70
2022/05/01 06:29:39;;;;;;;28.10;16.60;;;;;;;9.77;54.29;99432.33;105495;1282;97996;-70
2022/05/01 06:32:10;;;;;;;28.40;14.80;;;;;;;9.88;54.29;99430.40;105456;1282;112072;-69
2022/05/01 06:34:38;;;;;;;28.00;15.00;;;;;;;9.99;54.33;99430.39;105345;1284;97808;-70
2022/05/01 06:37:06;;;;;;;26.60;14.70;;;;;;;10.10;54.36;99432.70;105485;1283;107501;-69
2022/05/01 06:39:34;;;;;;;26.10;14.30;;;;;;;10.21;54.39;99431.11;105486;1282;97895;-69
2022/05/01 06:42:02;;;;;;;26.80;14.80;;;;;;;10.31;54.38;99434.88;105459;1284;95273;-71
2022/05/01 06:44:29;;;;;;;28.60;14.70;;;;;;;10.42;54.41;99430.64;105466;1283;111446;-69
2022/05/01 06:46:57;;;;;;;33.10;15.70;;;;;;;10.56;54.49;99435.99;105474;1283;97807;-68
2022/05/01 06:49:25;;;;;;;27.10;14.40;;;;;;;10.68;54.59;99435.17;105505;1283;108582;-69
2022/05/01 06:51:55;;;;;;;28.60;14.70;;;;;;;10.79;54.59;99431.23;105605;1284;97984;-69
2022/05/01 06:54:24;;;;;;;27.40;14.20;;;;;;;10.91;54.40;99432.89;105522;1283;97867;-68
2022/05/01 06:56:53;;;;;;;27.20;14.40;;;;;;;11.02;54.31;99430.55;105542;1283;112063;-67
2022/05/01 06:59:21;;;;;;;26.30;14.60;;;;;;;11.14;54.45;99429.06;105610;1283;97941;-71
2022/05/01 07:01:51;;;;;;;25.70;14.20;;;;;;;11.28;54.40;99429.10;105481;1283;106114;-69
2022/05/01 07:04:19;;;;;;;29.80;16.20;;;;;;;11.43;54.52;99426.31;105441;1283;98282;-69
2022/05/01 07:06:47;;;;;;;25.20;13.50;;;;;;;12.08;53.91;99426.99;105519;1283;97921;-70
2022/05/01 07:09:17;;;;;;;24.90;13.40;;;;;;;14.14;52.06;99422.45;105536;1283;112005;-70
2022/05/01 07:11:44;;;;;;;25.10;12.70;;;;;;;16.23;51.75;99420.55;105580;1283;97982;-70
2022/05/01 07:14:12;;;;;;;27.10;13.30;;;;;;;18.36;51.83;99412.42;105473;1283;108608;-70
2022/05/01 07:16:41;;;;;;;22.30;12.00;;;;;;;20.46;51.39;99406.79;105575;1283;97962;-69
2022/05/01 07:19:11;;;;;;;22.60;11.90;;;;;;;22.28;50.95;99409.61;105523;1284;96473;-70
2022/05/01 07:21:39;;;;;;;23.90;11.40;;;;;;;23.85;50.38;99403.08;105456;1284;112133;-69
2022/05/01 07:24:07;;;;;;;23.00;11.00;;;;;;;25.34;50.07;99408.73;105517;1283;97899;-69
2022/05/01 07:26:35;;;;;;;21.80;10.70;;;;;;;26.78;49.82;99399.61;105579;1284;107961;-70
2022/05/01 07:29:08;;;;;;;21.00;10.90;;;;;;;28.10;49.81;99404.08;105467;1283;97978;-71
2022/05/01 07:31:35;;;;;;;20.90;10.70;;;;;;;29.42;49.43;99405.11;105514;1283;97897;-71
2022/05/01 07:34:05;;;;;;;21.40;10.30;;;;;;;30.64;49.50;99407.75;105792;1283;111410;-71
2022/05/01 07:36:33;;;;;;;19.30;9.30;;;;;;;31.72;48.75;99406.21;107012;1283;96182;-70
2022/05/01 07:39:01;;;;;;;17.60;8.40;;;;;;;32.64;48.11;99405.14;105991;1283;107657;-73
2022/05/01 07:41:29;;;;;;;20.90;8.90;;;;;;;33.44;47.70;99406.54;105775;1283;97964;-68
2022/05/01 07:43:57;;;;;;;17.60;8.60;;;;;;;34.20;47.77;99408.95;106062;1283;98636;-67
2022/05/01 07:46:25;;;;;;;16.00;8.10;;;;;;;34.73;47.14;99407.21;106989;1283;110863;-67
2022/05/01 07:48:53;;;;;;;24.10;14.40;;;;;;;34.53;46.91;99408.50;105585;1283;98000;-66
2022/05/01 07:51:21;;;;;;;18.70;9.40;;;;;;;34.43;46.71;99411.36;105422;1283;108435;-68
2022/05/01 07:53:49;;;;;;;18.30;8.40;;;;;;;34.21;45.96;99403.90;105478;1283;97940;-68
2022/05/01 07:56:17;;;;;;;15.80;8.30;;;;;;;34.00;45.46;99401.75;105605;1283;97944;-68
2022/05/01 07:58:45;;;;;;;16.40;7.90;;;;;;;33.94;44.90;99405.27;105506;1283;113286;-68
2022/05/01 08:01:12;;;;;;;17.50;7.50;;;;;;;33.90;44.47;99399.40;105596;1283;98339;-68
2022/05/01 08:06:29;;;;;;;13.50;6.80;;;;;;;34.05;43.07;99396.23;105555;1283;97931;-67
2022/05/01 08:08:58;;;;;;;17.00;7.00;;;;;;;34.12;42.26;99393.54;105599;1283;95317;-68
2022/05/01 08:11:26;;;;;;;16.20;7.70;;;;;;;33.97;42.20;99391.83;105551;1283;112009;-70
2022/05/01 08:13:58;;;;;;;14.90;6.90;;;;;;;33.86;41.79;99393.83;105579;1283;97892;-68
2022/05/01 08:16:26;;;;;;;12.20;6.30;;;;;;;34.03;41.56;99391.02;105477;1283;107867;-67
2022/05/01 08:21:42;;;;;;;14.20;7.50;;;;;;;34.38;41.01;99387.95;105444;1283;97902;-69
2022/05/01 08:24:10;;;;;;;14.30;8.50;;;;;;;34.61;40.16;99383.81;105505;1283;111939;-69
2022/05/01 08:26:38;;;;;;;15.60;7.00;;;;;;;34.52;40.00;99385.89;105647;1283;95754;-69
2022/05/01 08:29:06;;;;;;;13.20;7.10;;;;;;;34.57;39.41;99384.49;105437;1284;108292;-70
2022/05/01 08:31:34;;;;;;;17.30;7.20;;;;;;;34.34;38.97;99379.95;105407;1284;97954;-67
2022/05/01 08:34:03;;;;;;;15.20;7.40;;;;;;;34.29;38.52;99380.69;105558;1283;96843;-71
2022/05/01 08:36:34;;;;;;;18.50;7.00;;;;;;;34.45;38.55;99376.65;105515;1283;112022;-68
2022/05/01 08:39:04;;;;;;;11.90;6.80;;;;;;;34.56;37.99;99376.48;105603;1283;95714;-69
2022/05/01 08:41:35;;;;;;;13.60;6.40;;;;;;;34.68;37.82;99373.26;105526;1284;108357;-68
2022/05/01 08:44:05;;;;;;;12.00;5.80;;;;;;;34.96;37.51;99369.05;105460;1284;96432;-68
2022/05/01 08:46:42;;;;;;;11.80;5.90;;;;;;;35.12;37.11;99369.33;105540;1284;96583;-70
2022/05/01 08:49:16;;;;;;;13.10;6.50;;;;;;;35.17;36.64;99365.21;105426;1283;112192;-68
2022/05/01 08:51:45;;;;;;;13.20;5.40;;;;;;;35.05;36.10;99363.70;105598;1283;97957;-69
2022/05/01 08:54:15;;;;;;;10.90;4.70;;;;;;;34.91;35.90;99366.46;105272;1284;108379;-70
2022/05/01 08:56:45;;;;;;;8.40;4.30;;;;;;;34.92;35.57;99364.92;105497;1283;97954;-69
2022/05/01 08:59:16;;;;;;;8.70;4.40;;;;;;;34.93;35.30;99361.29;105279;1283;97966;-68
2022/05/01 09:01:46;;;;;;;9.00;4.10;;;;;;;35.05;35.26;99360.73;105521;1282;111829;-68
2022/05/01 09:04:15;;;;;;;5.60;3.70;;;;;;;35.48;34.90;99360.46;105530;1283;95306;-68
2022/05/01 09:06:47;;;;;;;6.60;3.80;;;;;;;35.79;34.49;99362.36;105537;1283;107636;-67
2022/05/01 09:09:19;;;;;;;9.10;4.20;;;;;;;35.91;34.14;99356.02;105538;1283;98080;-67
2022/05/01 09:14:40;;;;;;;9.80;4.50;;;;;;;36.05;33.43;99353.04;105538;1283;112107;-69
2022/05/01 09:17:19;;;;;;;9.40;4.50;;;;;;;35.88;33.02;99350.20;105582;1283;98410;-67
2022/05/01 09:20:04;;;;;;;9.90;4.40;;;;;;;35.70;32.70;99351.64;105534;1283;108413;-67
2022/05/01 09:22:50;;;;;;;8.70;4.90;;;;;;;35.47;32.38;99354.59;105516;1284;98004;-68
2022/05/01 09:25:25;;;;;;;9.70;4.50;;;;;;;35.39;32.03;99347.95;105567;1284;97894;-68
2022/05/01 09:28:19;;;;;;;12.80;4.70;;;;;;;35.37;31.85;99350.44;105605;1282;111386;-70
2022/05/01 09:30:49;;;;;;;9.80;4.50;;;;;;;35.01;31.06;99351.39;105322;1283;98382;-68
2022/05/01 09:33:19;;;;;;;9.50;4.10;;;;;;;34.70;31.03;99350.62;105536;1283;107757;-68
2022/05/01 09:35:50;;;;;;;8.60;4.30;;;;;;;34.01;30.36;99351.41;105498;1284;95335;-68
2022/05/01 09:38:27;;;;;;;7.70;4.10;;;;;;;33.49;29.93;99348.76;105615;1282;97986;-69
2022/05/01 09:41:01;;;;;;;9.10;4.10;;;;;;;33.18;29.92;99348.67;105546;1283;112104;-68
2022/05/01 09:43:43;;;;;;;9.20;4.30;;;;;;;33.01;29.31;99342.69;105480;1283;98399;-68
2022/05/01 09:46:32;;;;;;;9.50;4.90;;;;;;;32.78;29.32;99342.02;105471;1284;107539;-68
2022/05/01 09:49:12;;;;;;;8.90;4.30;;;;;;;32.88;29.36;99339.70;105506;1283;98366;-70
2022/05/01 09:51:48;;;;;;;8.40;4.10;;;;;;;32.94;28.80;99336.11;105570;1283;96356;-68
2022/05/01 09:54:24;;;;;;;12.30;4.50;;;;;;;32.72;29.02;99336.90;105509;1283;111000;-68
2022/05/01 09:56:59;;;;;;;9.20;4.50;;;;;;;32.48;29.02;99336.04;105441;1284;99328;-68
2022/05/01 09:59:44;;;;;;;15.50;5.30;;;;;;;32.01;28.63;99332.38;105388;1284;106920;-68
2022/05/01 10:02:28;;;;;;;10.50;4.60;;;;;;;31.24;27.82;99329.89;105458;1283;97896;-69
2022/05/01 10:05:06;;;;;;;7.90;4.30;;;;;;;30.50;27.94;99332.84;105535;1282;98130;-68
2022/05/01 10:07:39;;;;;;;11.30;4.20;;;;;;;29.95;27.77;99333.59;105516;1282;112312;-69
2022/05/01 10:10:11;;;;;;;8.20;4.10;;;;;;;29.37;27.75;99333.27;105458;1283;95719;-70
2022/05/01 10:12:45;;;;;;;7.20;4.30;;;;;;;28.97;27.82;99327.23;105420;1284;107753;-69
2022/05/01 10:15:20;;;;;;;14.00;4.40;;;;;;;28.68;27.89;99323.46;105455;1283;96339;-69
2022/05/01 10:17:49;;;;;;;11.10;5.00;;;;;;;28.47;27.35;99320.92;105441;1283;98087;-66
2022/05/01 10:20:25;;;;;;;10.20;4.80;;;;;;;28.21;27.56;99317.92;105440;1283;111411;-68
2022/05/01 10:22:57;;;;;;;10.00;4.60;;;;;;;27.86;27.33;99316.44;105293;1283;98171;-69
2022/05/01 10:25:29;;;;;;;10.70;4.50;;;;;;;27.52;27.32;99310.81;105477;1283;108817;-68
2022/05/01 10:28:06;;;;;;;9.30;4.40;;;;;;;27.30;27.35;99307.14;105477;1283;97761;-66
2022/05/01 10:34:30;;;;;;;10.20;5.00;;;;;;;26.53;26.67;99307.23;105411;1284;112185;-68
2022/05/01 10:37:33;;;;;;;17.80;8.30;;;;;;;25.98;26.72;99303.95;104545;1290;96961;-69
2022/05/01 10:40:07;;;;;;;12.80;5.10;;;;;;;25.75;26.69;99303.62;104603;1290;108687;-70
2022/05/01 10:42:49;;;;;;;10.10;4.40;;;;;;;25.56;26.74;99305.61;105304;1284;97912;-69
2022/05/01 10:45:21;;;;;;;12.70;4.80;;;;;;;25.38;26.80;99303.76;105465;1283;97047;-69
2022/05/01 10:47:52;;;;;;;11.70;5.30;;;;;;;25.23;26.60;99301.46;105435;1283;112021;-69
2022/05/01 10:50:23;;;;;;;13.60;5.10;;;;;;;25.15;26.71;99302.59;105450;1283;95474;-68
2022/05/01 10:53:13;;;;;;;10.70;4.10;;;;;;;25.03;26.66;99298.09;105551;1284;107811;-69
2022/05/01 10:55:51;;;;;;;13.10;4.80;;;;;;;24.86;26.57;99296.33;105570;1284;97999;-68
2022/05/01 10:58:27;;;;;;;8.60;4.70;;;;;;;24.63;26.30;99290.70;105301;1285;96985;-68
2022/05/01 11:01:00;;;;;;;10.80;4.70;;;;;;;24.37;26.44;99290.39;105388;1284;112005;-68
2022/05/01 11:03:34;;;;;;;13.00;4.50;;;;;;;24.02;26.35;99287.32;105330;1284;98259;-68
2022/05/01 11:06:01;;;;;;;9.60;4.70;;;;;;;23.84;26.44;99292.98;105594;1283;107737;-68
2022/05/01 11:08:38;;;;;;;13.30;5.10;;;;;;;23.77;26.47;99288.95;105644;1283;96244;-69
2022/05/01 11:11:12;;;;;;;10.40;5.10;;;;;;;23.67;26.45;99288.38;105556;1284;95288;-70
2022/05/01 11:13:41;;;;;;;9.00;4.60;;;;;;;23.45;26.25;99285.52;105587;1283;111254;-68
2022/05/01 11:16:14;;;;;;;11.50;4.50;;;;;;;23.27;26.38;99284.55;105600;1282;99027;-69
2022/05/01 11:18:42;;;;;;;10.80;4.70;;;;;;;23.17;26.38;99286.40;105621;1283;106893;-68
2022/05/01 11:21:22;;;;;;;7.30;4.20;;;;;;;22.98;26.44;99283.55;105606;1282;98476;-68
2022/05/01 11:24:02;;;;;;;11.00;5.10;;;;;;;22.80;26.46;99283.25;105632;1283;97914;-70
2022/05/01 11:26:34;;;;;;;12.00;5.50;;;;;;;22.68;26.39;99277.44;105597;1283;111575;-69
2022/05/01 11:29:17;;;;;;;11.80;5.10;;;;;;;22.49;26.29;99271.90;105625;1283;95745;-69
2022/05/01 11:31:51;;;;;;;11.60;4.80;;;;;;;22.35;26.41;99267.95;105557;1282;107815;-69
2022/05/01 11:34:22;;;;;;;11.00;5.50;;;;;;;22.27;26.37;99265.18;105571;1284;98014;-69
2022/05/01 11:37:01;;;;;;;12.80;5.40;;;;;;;22.21;26.36;99267.63;105572;1283;97908;-68
2022/05/01 11:39:50;;;;;;;14.10;6.30;;;;;;;22.04;26.40;99265.13;105568;1284;111541;-69
2022/05/01 11:42:25;;;;;;;13.80;5.80;;;;;;;21.80;26.33;99257.63;105586;1283;97951;-70
2022/05/01 11:45:00;;;;;;;14.00;5.40;;;;;;;21.59;26.42;99254.22;105497;1283;107410;-69
2022/05/01 11:47:34;;;;;;;11.60;5.80;;;;;;;21.48;26.58;99253.70;105497;1283;96475;-69
2022/05/01 11:50:19;;;;;;;12.50;5.60;;;;;;;21.41;26.55;99251.98;105414;1283;96347;-69
2022/05/01 11:52:53;;;;;;;12.60;5.70;;;;;;;21.30;26.47;99245.85;105536;1283;112045;-68
2022/05/01 12:02:24;;;;;;;10.50;5.20;;;;;;;21.21;26.57;99243.05;105416;1284;97778;-69
2022/05/01 12:04:05;;;;;;;10.10;4.60;;;;;;;21.34;26.75;99237.48;105487;1283;95284;-68
2022/05/01 12:06:35;;;;;;;13.90;5.10;;;;;;;21.34;26.74;99239.20;105496;1283;111438;-68
2022/05/01 12:09:04;;;;;;;11.30;4.70;;;;;;;21.34;26.70;99234.91;105502;1284;97993;-68
2022/05/01 12:11:34;;;;;;;13.40;5.50;;;;;;;21.31;26.56;99238.17;105583;1282;108550;-69
2022/05/01 12:14:09;;;;;;;10.50;5.00;;;;;;;21.26;26.60;99237.08;105606;1283;95406;-69
2022/05/01 12:16:37;;;;;;;12.00;5.00;;;;;;;21.13;26.35;99234.71;105570;1283;96366;-70